This is the latest recevied weather packets stored in our database for station/object N0MR. If no packets are shown the sender has not sent any weather packets the latest 10 day(s).
| Time | Temp. | Humidity | Pressure | Rain* | Wind** | Luminosity | Snow |
|---|---|---|---|---|---|---|---|
| 1788270386 | 17.22° C | 81% | 1011.6 hPa | 0 mm | - | - | - |
| 1788269787 | 16.11° C | 86% | 1011.6 hPa | 0 mm | - | - | - |
| 1788269186 | 16.11° C | 86% | 1011.6 hPa | 0 mm | - | - | - |
| 1788268587 | 15° C | 89% | 1011.6 hPa | 0 mm | - | - | - |
| 1788267986 | 15° C | 89% | 1011.6 hPa | 0 mm | - | - | - |
| 1788267385 | 14.44° C | 90% | 1011.5 hPa | 0 mm | - | - | - |
| 1788266786 | 14.44° C | 90% | 1011.5 hPa | 0 mm | - | - | - |
| 1788266186 | 13.89° C | 91% | 1011.2 hPa | 0 mm | - | - | - |
| 1788265586 | 13.89° C | 91% | 1011.2 hPa | 0 mm | - | - | - |
| 1788264989 | 13.89° C | 90% | 1011 hPa | 0 mm | - | - | - |
| 1788264391 | 13.89° C | 90% | 1011 hPa | 0 mm | - | - | - |
| 1788263786 | 14.44° C | 89% | 1011 hPa | 0 mm | - | - | - |
| 1788263187 | 14.44° C | 89% | 1011 hPa | 0 mm | - | - | - |
| 1788262591 | 14.44° C | 88% | 1010.9 hPa | 0 mm | - | - | - |
| 1788261986 | 14.44° C | 88% | 1010.9 hPa | 0 mm | - | - | - |
| 1788261388 | 15° C | 86% | 1010.7 hPa | 0 mm | - | - | - |
| 1788260787 | 15° C | 86% | 1010.7 hPa | 0 mm | - | - | - |
| 1788260187 | 15° C | 85% | 1010.7 hPa | 0 mm | - | - | - |
| 1788259586 | 15.56° C | 83% | 1010.6 hPa | 0 mm | - | - | - |
| 1788258986 | 15.56° C | 83% | 1010.6 hPa | 0 mm | - | - | - |
| 1788258386 | 15.56° C | 82% | 1010.5 hPa | 0 mm | - | - | - |
| 1788257787 | 15.56° C | 82% | 1010.5 hPa | 0 mm | - | - | - |
| 1788257186 | 16.11° C | 81% | 1010.5 hPa | 0 mm | - | - | - |
| 1788255988 | 16.67° C | 80% | 1010.4 hPa | 0 mm | - | - | - |
| 1788255387 | 16.67° C | 80% | 1010.4 hPa | 0 mm | - | - | - |
* Rain latest hour (hover to see other rain measurements)
** Current wind speed in m/s (hover to see current wind gust speed)